South Milwaukee, WI

11:21 PM CST on January 22, 2019 (GMT -0600)
South Milwaukee | | Change Station
Active Advisory: Winter Storm Warning

Elev 687 ft 42.91 °N, 87.88 °W | Updated 56 seconds ago

Snow
Snow
26.9 °F
Feels Like 27 °F
N
1
Wind Variable Wind from NE
Gusts 10.0 mph

Today
High -- | Low -- °F
--% Chance of Precip.
Yesterday
High -- | Low -- °F
Precip. -- in
Pressure 29.90 in
Visibility 0.8 miles
Clouds Few 400 ft
Overcast 1300 ft
Windchill 27 °F
Dew Point 26 °F
Humidity 96%
Rainfall 0.00 in
Snow Depth Not available.
7:15 AM 4:50 PM
Waning Gibbous, 94% visible
SPECI KMKE 230513Z 36005KT 3/4SM -SN BR FEW004 OVC013 M02/M04 A2990 RMK AO2 TWR VIS 2 P0001 T10221039 RVRNO
Pressure 29.90 in
Visibility 0.8 miles
Clouds Few 400 ft
Overcast 1300 ft
Windchill 27 °F
Dew Point 26 °F
Humidity 96%
Rainfall 0.00 in
Snow Depth Not available.
7:15 AM 4:50 PM
Waning Gibbous, 94% visible
SPECI KMKE 230513Z 36005KT 3/4SM -SN BR FEW004 OVC013 M02/M04 A2990 RMK AO2 TWR VIS 2 P0001 T10221039 RVRNO

Get Your Daily Forecast Email!

Thanks for signing up!

Be on the lookout for a verification email in your inbox.

You'll start receiving severe weather alerts in your inbox..

×

10-Day Weather Forecast

Almanac

Astronomy

Jan. 22, 2019 Rise Set
Actual Time
Civil Twilight
Nautical Twilight
Astronomical Twilight
Moon
Length of Visible Light
Length of Day
Tomorrow will be .
, % of the Moon is Illuminated

Today's Extremes

State Highs State Lows

Community

WunderPhotos

Category 6

Welcome to Category 6. This is the collective home for Weather Underground's featured writeups by Dr. Jeff Masters (right), Bob Henson (left), Chris Burt, and other regular contributors.

Nearby

Air Quality

  Air Quality AQ Index Pollutant
Not available.

Snow Depth

Station Depth Elevation

Earthquake Activity

City Distance Mag. Time & Date
Minimum magnitude displayed is 2.5.

Coastal Water Temperatures

Place Temperature

Stations

Nearby Weather Stations

Station Location Temp. Windchill Dew Point Humidity Wind Precip. Elev Updated Type
                   

Watches & Warnings

Winter Storm Warning
Issued: 8:53 PM CST Jan. 22, 2019 – National Weather Service

... Winter Storm Warning remains in effect until noon CST
Wednesday...

* what... snow, heavy at times, especially between 3 am and 9 am
Wednesday morning. Total snow accumulations of 4 to 8 inches.

* Where... portions of east central, south central and southeast
Wisconsin.

* When... now until noon CST Wednesday.

* Additional details... travel will be very difficult, especially
later tonight into Wednesday morning for the Wednesday morning
commute.

Precautionary/preparedness actions...

A Winter Storm Warning for snow means severe winter weather
conditions will make travel very hazardous or impossible. If you
must travel, keep an extra flashlight, food and water in your
vehicle in case of an emergency.

The latest Road conditions for the state you are calling from can
be obtained by calling 5 1 1.